createdAt,value
2023-04-15T00:02:29.685Z,4.93
2023-04-15T00:05:16.885Z,4.82
2023-04-15T00:08:04.104Z,4.66
2023-04-15T00:10:51.271Z,5.05
2023-04-15T00:13:39.679Z,5.12
2023-04-15T00:16:26.807Z,4.81
2023-04-15T00:19:13.872Z,4.73
2023-04-15T00:22:01.578Z,4.93
2023-04-15T00:24:48.635Z,5.09
2023-04-15T00:27:35.971Z,4.98
2023-04-15T00:30:24.111Z,4.90
2023-04-15T00:33:11.476Z,4.79
2023-04-15T00:35:59.042Z,4.77
2023-04-15T00:38:46.103Z,4.77
2023-04-15T00:41:34.328Z,4.89
2023-04-15T00:44:21.717Z,4.74
2023-04-15T00:47:09.783Z,4.76
2023-04-15T00:49:56.940Z,4.76
2023-04-15T00:52:43.950Z,4.75
2023-04-15T00:55:30.959Z,4.67
2023-04-15T00:58:18.471Z,4.67
2023-04-15T01:01:05.666Z,4.72
2023-04-15T01:03:52.969Z,4.72
2023-04-15T01:06:40.300Z,4.70
2023-04-15T01:09:27.323Z,4.70
2023-04-15T01:12:18.445Z,4.59
2023-04-15T01:15:06.033Z,4.69
2023-04-15T01:17:53.226Z,4.47
2023-04-15T01:20:41.203Z,4.53
2023-04-15T01:23:29.192Z,4.43
2023-04-15T01:26:17.544Z,4.53
2023-04-15T01:29:04.775Z,4.67
2023-04-15T01:31:53.461Z,4.40
2023-04-15T01:34:40.545Z,4.62
2023-04-15T01:37:27.702Z,4.55
2023-04-15T01:40:15.500Z,4.53
2023-04-15T01:43:03.907Z,4.49
2023-04-15T01:45:51.336Z,4.49
2023-04-15T01:48:38.379Z,4.51
2023-04-15T01:51:25.475Z,4.38
2023-04-15T01:54:12.610Z,4.39
2023-04-15T01:56:59.825Z,4.46
2023-04-15T01:59:47.109Z,4.53
2023-04-15T02:02:34.714Z,4.38
2023-04-15T02:05:21.882Z,4.39
2023-04-15T02:08:09.638Z,4.10
2023-04-15T02:10:56.856Z,4.24
2023-04-15T02:13:43.917Z,4.30
2023-04-15T02:16:30.918Z,4.38
2023-04-15T02:19:18.375Z,4.36
2023-04-15T02:22:05.499Z,4.35
2023-04-15T02:24:52.726Z,4.29
2023-04-15T02:27:39.996Z,4.37
2023-04-15T02:30:27.388Z,4.24
2023-04-15T02:33:14.495Z,4.09
2023-04-15T02:36:01.883Z,4.27
2023-04-15T02:38:48.898Z,4.23
2023-04-15T02:41:35.944Z,4.28
2023-04-15T02:44:25.057Z,4.22
2023-04-15T02:47:12.182Z,4.21
2023-04-15T02:50:00.644Z,4.11
2023-04-15T02:52:48.044Z,4.11
2023-04-15T02:55:35.094Z,4.18
2023-04-15T02:58:22.183Z,4.23
2023-04-15T03:01:09.282Z,4.24
2023-04-15T03:03:56.592Z,4.22
2023-04-15T03:06:43.790Z,4.15
2023-04-15T03:09:30.954Z,4.14
2023-04-15T03:12:17.983Z,4.10
2023-04-15T03:15:05.407Z,4.12
2023-04-15T03:17:52.710Z,4.17
2023-04-15T03:20:39.772Z,4.10
2023-04-15T03:23:27.051Z,4.10
2023-04-15T03:26:26.410Z,4.03
2023-04-15T03:29:13.488Z,4.09
2023-04-15T03:32:00.549Z,4.02
2023-04-15T03:34:47.524Z,3.97
2023-04-15T03:37:34.735Z,4.01
2023-04-15T03:40:21.900Z,3.88
2023-04-15T03:43:08.974Z,4.02
2023-04-15T03:45:56.028Z,4.02
2023-04-15T03:48:43.101Z,3.95
2023-04-15T03:51:30.083Z,3.85
2023-04-15T03:54:17.082Z,3.97
2023-04-15T03:57:04.095Z,3.99
2023-04-15T03:59:51.416Z,4.07
2023-04-15T04:02:38.669Z,4.02
2023-04-15T04:05:26.101Z,4.00
2023-04-15T04:08:16.875Z,3.99
2023-04-15T04:11:04.238Z,3.88
2023-04-15T04:13:51.258Z,3.86
2023-04-15T04:16:38.299Z,3.86
2023-04-15T04:19:25.516Z,3.74
2023-04-15T04:22:12.551Z,3.87
2023-04-15T04:25:00.627Z,4.09
2023-04-15T04:27:47.688Z,3.97
2023-04-15T04:30:35.994Z,3.83
2023-04-15T04:33:23.076Z,4.09
2023-04-15T04:36:10.062Z,4.09
2023-04-15T04:38:57.375Z,4.02
2023-04-15T04:41:44.898Z,3.98
2023-04-15T04:44:31.984Z,4.01
2023-04-15T04:47:19.024Z,4.02
2023-04-15T04:50:06.980Z,3.91
2023-04-15T04:52:53.943Z,4.09
2023-04-15T04:55:40.936Z,4.01
2023-04-15T04:58:27.954Z,3.96
2023-04-15T05:01:14.988Z,4.11
2023-04-15T05:04:02.254Z,3.84
2023-04-15T05:06:49.450Z,3.95
2023-04-15T05:09:36.942Z,3.86
2023-04-15T05:12:24.117Z,3.98
2023-04-15T05:15:11.641Z,3.98
2023-04-15T05:17:58.901Z,4.05
2023-04-15T05:20:46.410Z,3.98
2023-04-15T05:23:33.988Z,3.67
2023-04-15T05:26:22.205Z,3.87
2023-04-15T05:29:09.674Z,3.98
2023-04-15T05:31:56.932Z,3.98
2023-04-15T05:34:44.035Z,4.05
2023-04-15T05:37:32.260Z,3.90
2023-04-15T05:40:20.249Z,4.04
2023-04-15T05:43:07.295Z,4.07
2023-04-15T05:45:54.540Z,4.00
2023-04-15T05:48:41.756Z,4.08
2023-04-15T05:51:28.761Z,3.94
2023-04-15T05:54:17.356Z,4.09
2023-04-15T05:57:05.728Z,4.11
2023-04-15T05:59:52.923Z,4.12
2023-04-15T06:02:40.134Z,4.16
2023-04-15T06:05:27.970Z,4.03
2023-04-15T06:08:15.157Z,4.07
2023-04-15T06:11:03.436Z,4.14
2023-04-15T06:13:51.555Z,4.18
2023-04-15T06:16:38.830Z,4.15
2023-04-15T06:19:26.346Z,4.06
2023-04-15T06:22:13.341Z,4.23
2023-04-15T06:25:00.591Z,4.20
2023-04-15T06:27:48.413Z,4.26
2023-04-15T06:30:36.260Z,4.23
2023-04-15T06:33:23.284Z,4.33
2023-04-15T06:36:10.394Z,4.28
2023-04-15T06:38:57.799Z,4.32
2023-04-15T06:41:45.000Z,4.41
2023-04-15T06:44:33.784Z,4.33
2023-04-15T06:47:21.095Z,4.45
2023-04-15T06:50:09.428Z,4.50
2023-04-15T06:52:57.359Z,4.50
2023-04-15T06:55:44.863Z,4.51
2023-04-15T06:58:31.884Z,4.55
2023-04-15T07:01:18.914Z,4.46
2023-04-15T07:04:06.358Z,4.45
2023-04-15T07:06:54.392Z,4.48
2023-04-15T07:09:41.792Z,4.55
2023-04-15T07:12:28.971Z,4.50
2023-04-15T07:15:16.649Z,4.55
2023-04-15T07:18:03.842Z,4.58
2023-04-15T07:20:51.730Z,4.66
2023-04-15T07:23:38.695Z,4.57
2023-04-15T07:26:25.718Z,4.70
2023-04-15T07:29:12.732Z,4.66
2023-04-15T07:31:59.870Z,4.61
2023-04-15T07:34:47.080Z,4.71
2023-04-15T07:37:34.124Z,4.64
2023-04-15T07:40:22.475Z,4.64
2023-04-15T07:43:10.099Z,4.62
2023-04-15T07:45:57.092Z,4.69
2023-04-15T07:48:44.155Z,4.79
2023-04-15T07:51:32.399Z,4.76
2023-04-15T07:54:19.446Z,4.73
2023-04-15T07:57:06.712Z,4.79
2023-04-15T07:59:53.689Z,4.75
2023-04-15T08:02:41.815Z,4.82
2023-04-15T08:05:29.014Z,4.81
2023-04-15T08:08:15.981Z,4.73
2023-04-15T08:11:03.077Z,4.76
2023-04-15T08:13:50.103Z,4.78
2023-04-15T08:16:37.544Z,4.67
2023-04-15T08:19:24.669Z,4.83
2023-04-15T08:22:17.787Z,4.79
2023-04-15T08:25:05.734Z,4.68
2023-04-15T08:27:55.410Z,4.82
2023-04-15T08:30:42.639Z,4.77
2023-04-15T08:33:29.925Z,4.75
2023-04-15T08:36:17.691Z,4.75
2023-04-15T08:39:05.242Z,4.83
2023-04-15T08:42:01.990Z,4.86
2023-04-15T08:44:49.650Z,4.85
2023-04-15T08:47:39.947Z,4.82
2023-04-15T08:50:30.585Z,4.98
2023-04-15T08:53:18.408Z,4.90
2023-04-15T08:56:10.352Z,4.87
2023-04-15T08:58:57.971Z,4.87
2023-04-15T09:01:45.763Z,4.70
2023-04-15T09:04:33.106Z,4.85
2023-04-15T09:07:20.221Z,4.78
2023-04-15T09:10:08.311Z,4.97
2023-04-15T09:12:56.561Z,4.78
2023-04-15T09:15:44.150Z,4.96
2023-04-15T09:18:33.745Z,5.09
2023-04-15T09:21:22.316Z,5.05
2023-04-15T09:24:09.512Z,5.00
2023-04-15T09:26:58.499Z,5.06
2023-04-15T09:29:50.417Z,4.95
2023-04-15T09:32:58.074Z,4.95
2023-04-15T09:36:05.314Z,5.04
2023-04-15T09:39:00.130Z,4.98
2023-04-15T09:41:47.304Z,4.93
2023-04-15T09:44:34.616Z,4.81
2023-04-15T09:47:29.441Z,4.86
2023-04-15T09:50:16.566Z,4.81
2023-04-15T09:53:04.141Z,4.98
2023-04-15T09:55:55.984Z,4.98
2023-04-15T09:58:43.435Z,4.93
2023-04-15T10:01:31.249Z,4.85
2023-04-15T10:04:18.579Z,4.89
2023-04-15T10:07:06.447Z,4.82
2023-04-15T10:09:54.147Z,4.55
2023-04-15T10:12:42.378Z,4.65
2023-04-15T10:15:31.192Z,4.63
2023-04-15T10:18:21.702Z,4.70
2023-04-15T10:21:10.045Z,4.71
2023-04-15T10:23:58.562Z,4.71
2023-04-15T10:26:45.890Z,4.60
2023-04-15T10:29:33.199Z,4.68
2023-04-15T10:32:22.788Z,4.82
2023-04-15T10:35:10.962Z,4.73
2023-04-15T10:37:58.258Z,4.75
2023-04-15T10:40:45.876Z,4.82
2023-04-15T10:43:33.012Z,4.81
2023-04-15T10:46:43.482Z,4.94
2023-04-15T10:49:30.753Z,4.87
2023-04-15T10:52:22.862Z,4.89
2023-04-15T10:55:22.900Z,4.93
2023-04-15T10:58:10.484Z,5.07
2023-04-15T11:00:57.599Z,5.02
2023-04-15T11:03:44.818Z,5.06
2023-04-15T11:06:45.037Z,5.07
2023-04-15T11:09:33.972Z,5.03
2023-04-15T11:12:21.874Z,5.10
2023-04-15T11:15:33.216Z,5.05
2023-04-15T11:18:23.162Z,5.16
2023-04-15T11:21:10.342Z,4.89
2023-04-15T11:23:57.825Z,4.95
2023-04-15T11:26:44.834Z,5.07
2023-04-15T11:29:32.511Z,5.12
2023-04-15T11:32:21.596Z,5.32
2023-04-15T11:35:08.948Z,5.39
2023-04-15T11:37:56.387Z,5.27
2023-04-15T11:40:46.345Z,5.32
2023-04-15T11:43:35.671Z,5.25
2023-04-15T11:46:30.433Z,5.30
2023-04-15T11:49:31.302Z,5.32
2023-04-15T11:52:19.199Z,5.28
2023-04-15T11:55:08.393Z,5.28
2023-04-15T11:58:10.806Z,5.20
2023-04-15T12:01:00.247Z,5.11
2023-04-15T12:03:49.415Z,5.12
2023-04-15T12:06:37.427Z,5.12
2023-04-15T12:09:25.377Z,5.13
2023-04-15T12:12:12.853Z,5.14
2023-04-15T12:15:00.158Z,5.07
2023-04-15T12:17:51.740Z,5.14
2023-04-15T12:20:45.904Z,5.23
2023-04-15T12:23:37.878Z,5.27
2023-04-15T12:26:29.820Z,5.28
2023-04-15T12:29:17.771Z,5.26
2023-04-15T12:32:10.953Z,5.42
2023-04-15T12:34:58.423Z,5.42
2023-04-15T12:37:45.558Z,5.47
2023-04-15T12:40:32.606Z,5.58
2023-04-15T12:43:19.754Z,5.71
2023-04-15T12:46:08.716Z,5.71
2023-04-15T12:48:55.974Z,5.82
2023-04-15T12:51:43.085Z,5.79
2023-04-15T12:54:33.295Z,5.83
2023-04-15T12:57:20.359Z,5.82
2023-04-15T13:00:09.516Z,5.82
2023-04-15T13:02:56.650Z,5.75
2023-04-15T13:05:43.818Z,5.74
2023-04-15T13:08:31.418Z,5.73
2023-04-15T13:11:18.440Z,5.66
2023-04-15T13:14:07.670Z,5.60
2023-04-15T13:16:55.108Z,5.62
2023-04-15T13:19:42.707Z,5.64
2023-04-15T13:22:30.286Z,5.49
2023-04-15T13:25:17.465Z,5.50
2023-04-15T13:28:04.502Z,5.31
2023-04-15T13:30:52.055Z,5.40
2023-04-15T13:33:39.153Z,5.45
2023-04-15T13:36:27.456Z,5.58
2023-04-15T13:39:14.576Z,5.66
2023-04-15T13:42:02.893Z,5.61
2023-04-15T13:44:54.327Z,5.62
2023-04-15T13:47:42.131Z,5.50
2023-04-15T13:50:29.796Z,5.45
2023-04-15T13:53:16.991Z,5.52
2023-04-15T13:56:04.317Z,5.50
2023-04-15T13:58:53.092Z,5.37
2023-04-15T14:01:41.579Z,5.68
2023-04-15T14:04:28.976Z,5.63
2023-04-15T14:07:16.329Z,5.76
2023-04-15T14:10:04.013Z,5.67
2023-04-15T14:12:51.509Z,5.66
2023-04-15T14:15:38.563Z,5.54
2023-04-15T14:18:25.933Z,5.72
2023-04-15T14:21:13.100Z,5.73
2023-04-15T14:24:00.375Z,5.80
2023-04-15T14:26:47.767Z,5.77
2023-04-15T14:29:35.180Z,5.70
2023-04-15T14:32:22.471Z,5.98
2023-04-15T14:35:09.827Z,6.07
2023-04-15T14:37:57.069Z,6.04
2023-04-15T14:40:45.425Z,5.95
2023-04-15T14:43:33.388Z,5.90
2023-04-15T14:46:20.626Z,6.00
2023-04-15T14:49:08.243Z,5.99
2023-04-15T14:51:55.374Z,5.93
2023-04-15T14:54:42.376Z,5.88
2023-04-15T14:57:29.583Z,5.81
2023-04-15T15:00:16.760Z,5.89
2023-04-15T15:03:04.121Z,6.06
2023-04-15T15:05:51.739Z,6.01
2023-04-15T15:08:38.989Z,5.92
2023-04-15T15:11:27.455Z,5.81
2023-04-15T15:14:15.317Z,5.81
2023-04-15T15:17:03.064Z,5.96
2023-04-15T15:19:50.205Z,5.93
2023-04-15T15:22:37.250Z,5.89
2023-04-15T15:25:25.028Z,5.89
2023-04-15T15:28:12.305Z,5.87
2023-04-15T15:30:59.495Z,5.91
2023-04-15T15:33:46.894Z,6.01
2023-04-15T15:36:34.085Z,5.86
2023-04-15T15:39:22.565Z,5.95
2023-04-15T15:42:09.623Z,5.98
2023-04-15T15:44:56.684Z,5.95
2023-04-15T15:47:44.291Z,5.92
2023-04-15T15:50:31.932Z,5.82
2023-04-15T15:53:21.004Z,5.81
2023-04-15T15:56:08.527Z,5.86
2023-04-15T15:58:55.669Z,5.80
2023-04-15T16:01:43.583Z,5.70
2023-04-15T16:04:31.188Z,5.69
2023-04-15T16:07:18.494Z,5.77
2023-04-15T16:10:06.348Z,5.79
2023-04-15T16:12:54.025Z,5.83
2023-04-15T16:15:41.368Z,5.79
2023-04-15T16:18:28.693Z,5.72
2023-04-15T16:21:16.451Z,5.70
2023-04-15T16:24:03.983Z,5.78
2023-04-15T16:26:51.081Z,5.77
2023-04-15T16:29:38.516Z,5.72
2023-04-15T16:32:26.468Z,5.82
2023-04-15T16:35:16.336Z,5.71
2023-04-15T16:38:04.039Z,5.69
2023-04-15T16:40:51.688Z,5.65
2023-04-15T16:43:39.232Z,5.80
2023-04-15T16:46:26.900Z,5.74
2023-04-15T16:49:14.565Z,5.65
2023-04-15T16:52:02.672Z,5.73
2023-04-15T16:54:50.785Z,5.58
2023-04-15T16:58:01.038Z,5.59
2023-04-15T17:00:45.544Z,5.62
2023-04-15T17:03:33.868Z,5.62
2023-04-15T17:06:21.562Z,5.52
2023-04-15T17:09:09.369Z,5.56
2023-04-15T17:11:56.853Z,5.50
2023-04-15T17:14:44.158Z,5.56
2023-04-15T17:17:31.833Z,5.63
2023-04-15T17:20:19.890Z,5.55
2023-04-15T17:23:07.353Z,5.65
2023-04-15T17:25:54.531Z,5.56
2023-04-15T17:28:41.994Z,5.46
2023-04-15T17:31:30.511Z,5.32
2023-04-15T17:34:18.122Z,5.43
2023-04-15T17:37:05.757Z,5.30
2023-04-15T17:39:53.500Z,5.43
2023-04-15T17:42:41.942Z,5.34
2023-04-15T17:45:29.639Z,5.44
2023-04-15T17:48:17.247Z,5.39
2023-04-15T17:51:04.897Z,5.42
2023-04-15T17:53:52.357Z,5.31
2023-04-15T17:56:39.728Z,5.35
2023-04-15T17:59:28.491Z,5.45
2023-04-15T18:02:16.136Z,5.50
2023-04-15T18:05:03.773Z,5.33
2023-04-15T18:07:52.964Z,5.23
2023-04-15T18:10:40.466Z,5.15
2023-04-15T18:13:28.996Z,5.12
2023-04-15T18:16:16.593Z,5.25
2023-04-15T18:19:04.164Z,5.33
2023-04-15T18:21:52.454Z,5.16
2023-04-15T18:24:39.575Z,5.15
2023-04-15T18:27:28.163Z,5.11
2023-04-15T18:30:15.921Z,5.16
2023-04-15T18:33:03.431Z,5.12
2023-04-15T18:35:51.242Z,5.19
2023-04-15T18:38:40.227Z,4.97
2023-04-15T18:41:27.866Z,5.00
2023-04-15T18:44:15.171Z,5.10
2023-04-15T18:47:02.969Z,4.99
2023-04-15T18:49:50.546Z,4.92
2023-04-15T18:52:38.072Z,4.94
2023-04-15T18:55:25.978Z,4.89
2023-04-15T18:58:13.658Z,4.89
2023-04-15T19:01:01.829Z,4.80
2023-04-15T19:03:49.004Z,4.91
2023-04-15T19:06:36.174Z,4.91
2023-04-15T19:09:25.236Z,4.82
2023-04-15T19:12:12.575Z,4.90
2023-04-15T19:15:00.319Z,4.92
2023-04-15T19:17:48.304Z,4.96
2023-04-15T19:20:38.446Z,5.09
2023-04-15T19:23:27.778Z,5.03
2023-04-15T19:26:15.395Z,4.98
2023-04-15T19:29:03.663Z,4.95
2023-04-15T19:31:52.175Z,4.89
2023-04-15T19:34:40.605Z,4.88
2023-04-15T19:37:28.358Z,4.90
2023-04-15T19:40:16.483Z,5.00
2023-04-15T19:43:04.200Z,5.06
2023-04-15T19:45:53.133Z,5.05
2023-04-15T19:48:41.438Z,5.22
2023-04-15T19:51:30.526Z,5.15
2023-04-15T19:54:18.432Z,5.01
2023-04-15T19:57:06.943Z,5.13
2023-04-15T19:59:54.684Z,5.18
2023-04-15T20:02:43.500Z,5.09
2023-04-15T20:05:31.485Z,4.90
2023-04-15T20:08:19.161Z,4.99
2023-04-15T20:11:07.265Z,5.14
2023-04-15T20:13:56.413Z,5.20
2023-04-15T20:16:44.409Z,5.12
2023-04-15T20:19:34.018Z,5.18
2023-04-15T20:22:21.628Z,5.22
2023-04-15T20:25:09.702Z,5.17
2023-04-15T20:28:00.407Z,5.17
2023-04-15T20:30:48.133Z,5.24
2023-04-15T20:33:35.723Z,5.15
2023-04-15T20:36:23.271Z,5.14
2023-04-15T20:39:11.334Z,5.03
2023-04-15T20:41:59.112Z,4.97
2023-04-15T20:44:46.677Z,4.97
2023-04-15T20:47:33.905Z,4.97
2023-04-15T20:50:21.349Z,4.96
2023-04-15T20:53:08.437Z,5.16
2023-04-15T20:55:58.330Z,5.01
2023-04-15T20:58:45.481Z,5.08
2023-04-15T21:01:32.564Z,5.07
2023-04-15T21:04:21.863Z,5.00
2023-04-15T21:07:10.077Z,5.01
2023-04-15T21:09:57.490Z,5.00
2023-04-15T21:12:45.007Z,5.01
2023-04-15T21:15:32.508Z,4.99
2023-04-15T21:18:21.403Z,5.00
2023-04-15T21:21:08.477Z,5.10
2023-04-15T21:23:55.639Z,5.02
2023-04-15T21:26:42.726Z,5.15
2023-04-15T21:29:29.887Z,5.12
2023-04-15T21:32:17.053Z,5.12
2023-04-15T21:35:04.437Z,5.03
2023-04-15T21:37:51.476Z,4.93
2023-04-15T21:40:40.819Z,4.98
2023-04-15T21:43:27.873Z,4.93
2023-04-15T21:46:23.612Z,4.98
2023-04-15T21:49:11.848Z,4.98
2023-04-15T21:52:01.449Z,5.02
2023-04-15T21:54:48.641Z,4.96
2023-04-15T21:57:35.729Z,5.04
2023-04-15T22:00:23.225Z,4.96
2023-04-15T22:03:10.697Z,5.15
2023-04-15T22:05:58.188Z,5.06
2023-04-15T22:08:56.208Z,5.12
2023-04-15T22:11:44.397Z,5.12
2023-04-15T22:14:31.490Z,5.09
2023-04-15T22:17:18.697Z,5.04
2023-04-15T22:20:06.372Z,4.91
2023-04-15T22:22:54.370Z,4.84
2023-04-15T22:25:41.684Z,4.88
2023-04-15T22:28:28.729Z,4.68
2023-04-15T22:31:16.032Z,4.78
2023-04-15T22:34:03.074Z,4.73
2023-04-15T22:36:51.605Z,4.87
2023-04-15T22:39:38.632Z,4.77
2023-04-15T22:42:25.736Z,4.89
2023-04-15T22:45:12.814Z,4.76
2023-04-15T22:47:59.914Z,4.85
2023-04-15T22:50:47.055Z,4.68
2023-04-15T22:53:34.354Z,4.76
2023-04-15T22:56:22.958Z,4.66
2023-04-15T22:59:10.336Z,4.82
2023-04-15T23:03:33.510Z,4.99
2023-04-15T23:06:30.640Z,4.85
2023-04-15T23:09:17.724Z,4.82
2023-04-15T23:12:05.145Z,4.84
2023-04-15T23:14:52.162Z,4.75
2023-04-15T23:17:39.247Z,4.76
2023-04-15T23:20:26.342Z,4.69
2023-04-15T23:23:13.537Z,4.72
2023-04-15T23:26:01.484Z,4.82
2023-04-15T23:28:48.524Z,4.82
2023-04-15T23:31:36.427Z,4.90
2023-04-15T23:34:23.480Z,4.81
2023-04-15T23:37:10.662Z,4.82
2023-04-15T23:39:57.714Z,4.78
2023-04-15T23:42:44.793Z,4.75
2023-04-15T23:45:31.817Z,4.86
2023-04-15T23:48:18.882Z,4.81
2023-04-15T23:51:06.016Z,4.84
2023-04-15T23:53:53.126Z,4.82
2023-04-15T23:56:40.219Z,5.03
2023-04-15T23:59:27.299Z,4.96
